キングストン の空港の天気 - METARとTAF

ノーマン・マンレー国際空港 ( MKJP / KIN ) - ジャマイカ キングストン
飛行場実況気象(Metar)
観測時間03/09 02:00 EST (03/09 07:00 UTC)
風向・風速西北西 2m/s
視程10km以上
天気現象
少しの雲 雲底高度 670m
気温26℃
湿度74%
気圧1017hPa
METARMKJP 090700Z 30004KT 9999 FEW022 26/21 Q1017
過去の天気等 Google飛行場航空写真 Wunderground天気予報

過去48時間のMETAR

飛行場予報(TAF)
発表時間: 3/09 00:15 EST (3/09 05:15 UTC)
予報対象時間: 9日1時 EST ~ 10日1時 EST
風向・風速北北西 3m/s
視程10km以上
少しの雲 雲底高度 610m
全天の4割程度の雲 雲底高度 1040m
9日10時 EST ~ 9日20時 EST に一時的に
視程5000m
天気現象しゅう雨
全天の8割程度の雲 雲底高度 550m
全天の8割程度の雲 雲底高度 980m
9日11時 EST ~ 9日13時 EST に徐々に
風向・風速南 5m/s
9日21時 EST ~ 9日23時 EST に徐々に
風向・風速北 3m/s
TAF MKJP 090515Z 0906/1006 34005KT 9999 FEW020 SCT034
TEMPO 0915/1001 5000 SHRA BKN018 BKN032
BECMG 0916/0918 18010KT
BECMG 1002/1004 35005KT